createdAt,value
2018-05-06T00:00:06.443Z,38.66
2018-05-06T00:00:39.363Z,38.56
2018-05-06T00:01:11.396Z,38.76
2018-05-06T00:01:43.411Z,38.56
2018-05-06T00:02:15.449Z,38.66
2018-05-06T00:02:47.415Z,38.66
2018-05-06T00:03:19.426Z,38.56
2018-05-06T00:03:51.581Z,38.76
2018-05-06T00:04:23.624Z,38.76
2018-05-06T00:04:55.662Z,38.76
2018-05-06T00:05:27.668Z,38.66
2018-05-06T00:05:59.682Z,38.85
2018-05-06T00:06:31.669Z,38.76
2018-05-06T00:07:03.698Z,38.66
2018-05-06T00:07:35.701Z,38.56
2018-05-06T00:08:07.721Z,38.76
2018-05-06T00:08:39.760Z,38.76
2018-05-06T00:09:11.830Z,38.66
2018-05-06T00:09:43.835Z,38.85
2018-05-06T00:10:15.859Z,38.85
2018-05-06T00:10:47.874Z,38.76
2018-05-06T00:11:19.831Z,38.76
2018-05-06T00:11:51.840Z,38.95
2018-05-06T00:12:23.847Z,38.56
2018-05-06T00:12:55.875Z,38.66
2018-05-06T00:13:27.947Z,38.66
2018-05-06T00:13:59.900Z,38.76
2018-05-06T00:14:31.903Z,38.85
2018-05-06T00:15:03.962Z,38.64
2018-05-06T00:15:36.028Z,38.66
2018-05-06T00:16:08.040Z,38.84
2018-05-06T00:16:40.104Z,38.66
2018-05-06T00:17:12.080Z,38.64
2018-05-06T00:17:44.111Z,38.74
2018-05-06T00:18:16.221Z,38.74
2018-05-06T00:18:48.334Z,38.64
2018-05-06T00:19:20.448Z,38.64
2018-05-06T00:19:52.441Z,39.04
2018-05-06T00:20:24.496Z,38.64
2018-05-06T00:20:56.634Z,38.64
2018-05-06T00:21:29.240Z,38.54
2018-05-06T00:22:01.288Z,38.74
2018-05-06T00:22:33.309Z,38.74
2018-05-06T00:23:05.340Z,38.74
2018-05-06T00:23:37.503Z,38.74
2018-05-06T00:24:09.551Z,38.64
2018-05-06T00:24:41.589Z,38.64
2018-05-06T00:25:13.558Z,38.84
2018-05-06T00:25:45.628Z,38.64
2018-05-06T00:26:17.643Z,38.64
2018-05-06T00:26:49.644Z,38.54
2018-05-06T00:27:21.697Z,38.64
2018-05-06T00:27:53.702Z,38.74
2018-05-06T00:28:25.733Z,38.74
2018-05-06T00:28:58.419Z,38.74
2018-05-06T00:29:30.449Z,38.74
2018-05-06T00:30:02.481Z,38.64
2018-05-06T00:30:34.565Z,38.74
2018-05-06T00:31:06.702Z,38.64
2018-05-06T00:31:38.754Z,38.74
2018-05-06T00:32:10.777Z,38.64
2018-05-06T00:32:42.775Z,38.93
2018-05-06T00:33:14.913Z,38.64
2018-05-06T00:33:46.953Z,38.64
2018-05-06T00:34:18.990Z,38.84
2018-05-06T00:34:51.031Z,38.64
2018-05-06T00:35:23.028Z,38.84
2018-05-06T00:35:55.052Z,38.74
2018-05-06T00:36:27.083Z,38.84
2018-05-06T00:36:59.128Z,38.74
2018-05-06T00:37:31.179Z,38.64
2018-05-06T00:38:03.259Z,38.74
2018-05-06T00:38:35.259Z,38.84
2018-05-06T00:39:08.125Z,38.84
2018-05-06T00:39:40.162Z,38.84
2018-05-06T00:40:12.247Z,38.74
2018-05-06T00:40:44.319Z,38.93
2018-05-06T00:41:16.373Z,38.84
2018-05-06T00:41:48.518Z,38.64
2018-05-06T00:42:20.558Z,38.84
2018-05-06T00:42:52.567Z,38.84
2018-05-06T00:43:24.557Z,38.74
2018-05-06T00:43:56.584Z,38.84
2018-05-06T00:44:28.600Z,38.84
2018-05-06T00:45:00.634Z,38.84
2018-05-06T00:45:32.681Z,38.74
2018-05-06T00:46:04.753Z,38.74
2018-05-06T00:46:36.772Z,38.84
2018-05-06T00:47:08.756Z,38.93
2018-05-06T00:47:40.773Z,38.84
2018-05-06T00:48:12.800Z,38.84
2018-05-06T00:48:44.849Z,38.93
2018-05-06T00:49:16.885Z,38.84
2018-05-06T00:49:48.904Z,38.84
2018-05-06T00:50:20.926Z,38.93
2018-05-06T00:50:52.978Z,38.84
2018-05-06T00:51:25.021Z,38.64
2018-05-06T00:51:57.043Z,38.93
2018-05-06T00:52:29.087Z,38.93
2018-05-06T00:53:01.122Z,38.93
2018-05-06T00:53:33.136Z,38.84
2018-05-06T00:54:05.234Z,38.93
2018-05-06T00:54:37.338Z,38.84
2018-05-06T00:55:09.369Z,38.93
2018-05-06T00:55:41.407Z,38.84
2018-05-06T00:56:13.436Z,38.84
2018-05-06T00:56:45.537Z,38.74
2018-05-06T00:57:17.563Z,38.93
2018-05-06T00:57:49.573Z,39.03
2018-05-06T00:58:21.652Z,38.93
2018-05-06T00:58:53.693Z,38.93
2018-05-06T00:59:25.680Z,38.84
2018-05-06T00:59:57.714Z,38.93
2018-05-06T01:00:29.746Z,38.84
2018-05-06T01:01:01.782Z,38.93
2018-05-06T01:01:33.866Z,39.03
2018-05-06T01:02:06.051Z,38.84
2018-05-06T01:02:38.070Z,38.93
2018-05-06T01:03:10.078Z,39.03
2018-05-06T01:03:42.172Z,38.84
2018-05-06T01:04:14.232Z,39.03
2018-05-06T01:04:46.291Z,39.03
2018-05-06T01:05:18.319Z,39.03
2018-05-06T01:05:50.382Z,38.93
2018-05-06T01:06:22.419Z,38.93
2018-05-06T01:06:54.455Z,38.84
2018-05-06T01:07:26.513Z,39.03
2018-05-06T01:07:58.571Z,39.03
2018-05-06T01:08:30.587Z,39.03
2018-05-06T01:09:02.667Z,38.93
2018-05-06T01:09:34.708Z,38.93
2018-05-06T01:10:06.710Z,38.74
2018-05-06T01:10:38.739Z,38.91
2018-05-06T01:11:10.782Z,38.93
2018-05-06T01:11:42.850Z,39.03
2018-05-06T01:12:14.863Z,39.01
2018-05-06T01:12:46.908Z,38.93
2018-05-06T01:13:18.931Z,38.91
2018-05-06T01:13:50.948Z,38.81
2018-05-06T01:14:22.936Z,39.01
2018-05-06T01:14:55.054Z,39.03
2018-05-06T01:15:27.165Z,39.03
2018-05-06T01:15:59.218Z,38.91
2018-05-06T01:16:31.208Z,39.01
2018-05-06T01:17:03.299Z,39.01
2018-05-06T01:17:35.314Z,38.93
2018-05-06T01:18:07.345Z,39.01
2018-05-06T01:18:39.366Z,39.01
2018-05-06T01:19:11.386Z,39.03
2018-05-06T01:19:43.375Z,39.01
2018-05-06T01:20:15.420Z,38.93
2018-05-06T01:20:47.455Z,39.01
2018-05-06T01:21:19.500Z,39.01
2018-05-06T01:21:51.533Z,39.12
2018-05-06T01:22:23.648Z,39.01
2018-05-06T01:22:55.626Z,38.91
2018-05-06T01:23:27.634Z,39.03
2018-05-06T01:23:59.828Z,38.93
2018-05-06T01:24:31.939Z,39.01
2018-05-06T01:25:03.959Z,38.91
2018-05-06T01:25:36.017Z,38.91
2018-05-06T01:26:08.028Z,39.01
2018-05-06T01:26:40.929Z,38.91
2018-05-06T01:27:12.971Z,38.91
2018-05-06T01:27:45.080Z,38.91
2018-05-06T01:28:17.078Z,39.01
2018-05-06T01:28:49.128Z,39.11
2018-05-06T01:29:21.159Z,38.91
2018-05-06T01:29:53.279Z,38.91
2018-05-06T01:30:25.444Z,38.91
2018-05-06T01:30:57.488Z,39.01
2018-05-06T01:31:29.528Z,39.11
2018-05-06T01:32:01.590Z,39.01
2018-05-06T01:32:33.627Z,39.11
2018-05-06T01:33:05.633Z,39.01
2018-05-06T01:33:37.650Z,38.91
2018-05-06T01:34:09.700Z,38.81
2018-05-06T01:34:41.751Z,38.91
2018-05-06T01:35:13.781Z,38.91
2018-05-06T01:35:45.846Z,38.81
2018-05-06T01:36:17.836Z,39.11
2018-05-06T01:36:49.859Z,38.81
2018-05-06T01:37:21.886Z,39.01
2018-05-06T01:37:53.903Z,38.81
2018-05-06T01:38:25.953Z,38.91
2018-05-06T01:38:58.072Z,39.11
2018-05-06T01:39:30.070Z,38.91
2018-05-06T01:40:02.107Z,39.2
2018-05-06T01:40:34.214Z,38.91
2018-05-06T01:41:06.316Z,39.01
2018-05-06T01:41:38.432Z,39.01
2018-05-06T01:42:10.482Z,39.01
2018-05-06T01:42:42.515Z,39.01
2018-05-06T01:43:14.549Z,39.01
2018-05-06T01:43:46.703Z,39.01
2018-05-06T01:44:18.722Z,39.01
2018-05-06T01:44:50.775Z,39.01
2018-05-06T01:45:22.839Z,38.91
2018-05-06T01:45:54.862Z,39.11
2018-05-06T01:46:26.899Z,39.11
2018-05-06T01:46:58.924Z,39.11
2018-05-06T01:47:31.766Z,39.11
2018-05-06T01:48:03.792Z,39.01
2018-05-06T01:48:35.783Z,38.91
2018-05-06T01:49:07.826Z,38.91
2018-05-06T01:49:39.867Z,39.01
2018-05-06T01:50:11.985Z,39.11
2018-05-06T01:50:44.024Z,38.91
2018-05-06T01:51:16.065Z,38.91
2018-05-06T01:51:48.098Z,39.01
2018-05-06T01:52:20.130Z,39.01
2018-05-06T01:52:52.161Z,38.91
2018-05-06T01:53:24.184Z,39.2
2018-05-06T01:53:56.226Z,39.11
2018-05-06T01:54:28.241Z,39.11
2018-05-06T01:55:00.302Z,39.2
2018-05-06T01:55:32.324Z,39.29
2018-05-06T01:56:04.565Z,38.91
2018-05-06T01:56:36.601Z,39.01
2018-05-06T01:57:08.634Z,39.01
2018-05-06T01:57:40.663Z,39.29
2018-05-06T01:58:12.704Z,39.11
2018-05-06T01:58:44.751Z,39.11
2018-05-06T01:59:16.819Z,38.99
2018-05-06T01:59:49.369Z,39.01
2018-05-06T02:00:21.391Z,38.91
2018-05-06T02:00:53.521Z,39.11
2018-05-06T02:01:25.627Z,39.11
2018-05-06T02:01:57.643Z,39.01
2018-05-06T02:02:29.756Z,39.01
2018-05-06T02:03:01.878Z,39.11
2018-05-06T02:03:33.891Z,39.2
2018-05-06T02:04:05.945Z,39.2
2018-05-06T02:04:38.007Z,39.2
2018-05-06T02:05:10.021Z,39.2
2018-05-06T02:05:42.027Z,39.01
2018-05-06T02:06:14.053Z,38.81
2018-05-06T02:06:46.108Z,39.2
2018-05-06T02:07:18.129Z,39.18
2018-05-06T02:07:50.168Z,39.29
2018-05-06T02:08:22.207Z,39.11
2018-05-06T02:08:54.260Z,39.01
2018-05-06T02:09:26.276Z,39.2
2018-05-06T02:09:58.294Z,38.81
2018-05-06T02:10:30.302Z,38.81
2018-05-06T02:11:02.337Z,38.79
2018-05-06T02:11:34.404Z,38.99
2018-05-06T02:12:06.457Z,39.2
2018-05-06T02:12:38.466Z,39.01
2018-05-06T02:13:10.532Z,38.99
2018-05-06T02:13:42.562Z,38.81
2018-05-06T02:14:14.581Z,38.81
2018-05-06T02:14:46.617Z,38.81
2018-05-06T02:15:18.598Z,38.79
2018-05-06T02:15:50.669Z,39.29
2018-05-06T02:16:22.749Z,38.91
2018-05-06T02:16:54.792Z,39.01
2018-05-06T02:17:26.829Z,38.91
2018-05-06T02:17:58.904Z,38.79
2018-05-06T02:18:30.997Z,38.89
2018-05-06T02:19:03.007Z,38.81
2018-05-06T02:19:34.999Z,38.7
2018-05-06T02:20:07.061Z,39.08
2018-05-06T02:20:39.133Z,39.2
2018-05-06T02:21:11.154Z,38.7
2018-05-06T02:21:43.216Z,39.18
2018-05-06T02:22:15.303Z,38.89
2018-05-06T02:22:47.293Z,39.08
2018-05-06T02:23:19.258Z,38.99
2018-05-06T02:23:51.294Z,38.89
2018-05-06T02:24:23.366Z,39.08
2018-05-06T02:24:55.413Z,39.08
2018-05-06T02:25:27.446Z,38.89
2018-05-06T02:25:59.452Z,38.7
2018-05-06T02:26:31.488Z,39.18
2018-05-06T02:27:03.520Z,38.99
2018-05-06T02:27:35.633Z,39.18
2018-05-06T02:28:07.689Z,38.89
2018-05-06T02:28:39.714Z,38.89
2018-05-06T02:29:11.768Z,38.79
2018-05-06T02:29:43.768Z,39.18
2018-05-06T02:30:15.924Z,39.08
2018-05-06T02:30:47.968Z,38.89
2018-05-06T02:31:19.983Z,39.08
2018-05-06T02:31:52.043Z,39.47
2018-05-06T02:32:24.062Z,39.18
2018-05-06T02:32:56.093Z,38.99
2018-05-06T02:33:28.124Z,39.18
2018-05-06T02:34:00.165Z,38.99
2018-05-06T02:34:32.233Z,39.18
2018-05-06T02:35:04.267Z,38.89
2018-05-06T02:35:36.307Z,38.89
2018-05-06T02:36:08.358Z,38.99
2018-05-06T02:36:40.389Z,39.56
2018-05-06T02:37:12.449Z,39.18
2018-05-06T02:37:44.489Z,39.18
2018-05-06T02:38:16.513Z,39.08
2018-05-06T02:38:48.534Z,38.89
2018-05-06T02:39:20.575Z,38.99
2018-05-06T02:39:52.564Z,39.18
2018-05-06T02:40:24.639Z,39.37
2018-05-06T02:40:56.664Z,38.89
2018-05-06T02:41:28.685Z,38.99
2018-05-06T02:42:00.726Z,39.28
2018-05-06T02:42:32.783Z,39.28
2018-05-06T02:43:04.809Z,38.99
2018-05-06T02:43:36.853Z,39.18
2018-05-06T02:44:08.848Z,39.28
2018-05-06T02:44:40.930Z,39.28
2018-05-06T02:45:12.972Z,39.28
2018-05-06T02:45:45.020Z,39.28
2018-05-06T02:46:17.060Z,39.37
2018-05-06T02:46:49.115Z,39.28
2018-05-06T02:47:21.172Z,38.99
2018-05-06T02:47:53.212Z,39.28
2018-05-06T02:48:25.267Z,39.28
2018-05-06T02:48:57.263Z,39.28
2018-05-06T02:49:29.351Z,39.28
2018-05-06T02:50:01.346Z,39.37
2018-05-06T02:50:37.008Z,39.08
2018-05-06T02:51:09.023Z,38.99
2018-05-06T02:51:41.041Z,38.99
2018-05-06T02:52:13.066Z,39.28
2018-05-06T02:52:45.120Z,39.28
2018-05-06T02:53:17.171Z,39.28
2018-05-06T02:53:49.376Z,38.99
2018-05-06T02:54:21.436Z,39.08
2018-05-06T02:54:53.465Z,38.99
2018-05-06T02:55:25.502Z,39.28
2018-05-06T02:55:57.603Z,39.28
2018-05-06T02:56:29.640Z,39.18
2018-05-06T02:57:01.704Z,38.99
2018-05-06T02:57:33.747Z,39.28
2018-05-06T02:58:05.892Z,39.18
2018-05-06T02:58:37.990Z,39.28
2018-05-06T02:59:10.016Z,38.99
2018-05-06T02:59:42.044Z,39.18
2018-05-06T03:00:20.781Z,39.18
2018-05-06T03:00:52.817Z,38.89
2018-05-06T03:01:24.842Z,39.28
2018-05-06T03:01:56.907Z,38.99
2018-05-06T03:02:28.956Z,38.99
2018-05-06T03:03:00.960Z,39.18
2018-05-06T03:03:32.987Z,39.18
2018-05-06T03:04:04.997Z,39.08
2018-05-06T03:04:37.025Z,39.08
2018-05-06T03:05:09.050Z,39.18
2018-05-06T03:05:41.062Z,39.08
2018-05-06T03:06:13.099Z,39.18
2018-05-06T03:06:45.147Z,39.18
2018-05-06T03:07:17.199Z,39.18
2018-05-06T03:07:49.266Z,39.08
2018-05-06T03:08:21.301Z,39.18
2018-05-06T03:08:53.402Z,39.08
2018-05-06T03:09:25.534Z,39.08
2018-05-06T03:09:57.548Z,39.18
2018-05-06T03:10:29.583Z,39.16
2018-05-06T03:11:01.597Z,39.18
2018-05-06T03:11:33.602Z,38.89
2018-05-06T03:12:05.629Z,39.18
2018-05-06T03:12:37.837Z,38.89
2018-05-06T03:13:09.919Z,38.89
2018-05-06T03:13:41.938Z,39.06
2018-05-06T03:14:13.967Z,38.89
2018-05-06T03:14:45.999Z,38.96
2018-05-06T03:15:18.047Z,39.26
2018-05-06T03:15:50.038Z,39.18
2018-05-06T03:16:22.117Z,39.06
2018-05-06T03:16:54.160Z,39.18
2018-05-06T03:17:26.177Z,39.16
2018-05-06T03:17:58.253Z,39.16
2018-05-06T03:18:30.290Z,39.08
2018-05-06T03:19:02.430Z,39.16
2018-05-06T03:19:34.434Z,39.16
2018-05-06T03:20:06.471Z,39.18
2018-05-06T03:20:38.469Z,39.16
2018-05-06T03:21:10.494Z,39.16
2018-05-06T03:21:42.564Z,39.06
2018-05-06T03:22:14.590Z,39.06
2018-05-06T03:22:46.651Z,38.96
2018-05-06T03:23:18.684Z,39.06
2018-05-06T03:23:50.697Z,38.87
2018-05-06T03:24:22.728Z,39.16
2018-05-06T03:24:54.764Z,39.16
2018-05-06T03:25:26.817Z,39.16
2018-05-06T03:25:58.860Z,39.16
2018-05-06T03:26:30.919Z,39.26
2018-05-06T03:27:02.956Z,39.16
2018-05-06T03:27:34.966Z,39.06
2018-05-06T03:28:07.000Z,39.16
2018-05-06T03:28:39.008Z,38.87
2018-05-06T03:29:11.014Z,39.06
2018-05-06T03:29:43.056Z,39.16
2018-05-06T03:30:15.098Z,39.26
2018-05-06T03:30:47.151Z,39.06
2018-05-06T03:31:19.152Z,39.16
2018-05-06T03:31:51.182Z,39.16
2018-05-06T03:32:23.225Z,39.16
2018-05-06T03:32:55.323Z,39.06
2018-05-06T03:33:27.359Z,39.16
2018-05-06T03:33:59.388Z,39.16
2018-05-06T03:34:31.538Z,39.16
2018-05-06T03:35:03.550Z,39.16
2018-05-06T03:35:35.593Z,39.16
2018-05-06T03:36:07.627Z,39.16
2018-05-06T03:36:39.643Z,39.16
2018-05-06T03:37:11.670Z,39.16
2018-05-06T03:37:43.709Z,39.16
2018-05-06T03:38:15.737Z,39.16
2018-05-06T03:38:47.767Z,39.16
2018-05-06T03:39:19.784Z,39.16
2018-05-06T03:39:51.839Z,39.06
2018-05-06T03:40:23.946Z,39.06
2018-05-06T03:40:55.955Z,39.16
2018-05-06T03:41:28.007Z,39.16
2018-05-06T03:42:00.051Z,39.16
2018-05-06T03:42:32.107Z,39.06
2018-05-06T03:43:04.146Z,39.16
2018-05-06T03:43:36.203Z,39.06
2018-05-06T03:44:08.252Z,39.06
2018-05-06T03:44:40.269Z,39.06
2018-05-06T03:45:12.284Z,39.26
2018-05-06T03:45:44.311Z,39.16
2018-05-06T03:46:16.296Z,39.16
2018-05-06T03:46:48.469Z,39.16
2018-05-06T03:47:20.476Z,39.45
2018-05-06T03:47:52.552Z,39.06
2018-05-06T03:48:24.570Z,39.06
2018-05-06T03:48:56.618Z,39.16
2018-05-06T03:49:28.656Z,39.16
2018-05-06T03:50:00.673Z,39.35
2018-05-06T03:50:32.769Z,39.06
2018-05-06T03:51:04.758Z,39.06
2018-05-06T03:51:36.746Z,39.06
2018-05-06T03:52:08.787Z,39.06
2018-05-06T03:52:40.807Z,39.16
2018-05-06T03:53:12.846Z,39.16
2018-05-06T03:53:44.900Z,39.06
2018-05-06T03:54:16.898Z,39.45
2018-05-06T03:54:49.001Z,39.26
2018-05-06T03:55:21.003Z,39.16
2018-05-06T03:55:53.077Z,39.06
2018-05-06T03:56:25.157Z,39.35
2018-05-06T03:56:57.196Z,39.16
2018-05-06T03:57:29.240Z,39.35
2018-05-06T03:58:01.282Z,39.35
2018-05-06T03:58:33.412Z,39.16
2018-05-06T03:59:05.433Z,39.16
2018-05-06T03:59:37.488Z,39.06
2018-05-06T04:00:09.510Z,39.35
2018-05-06T04:00:41.517Z,39.26
2018-05-06T04:01:13.543Z,39.06
2018-05-06T04:01:45.613Z,39.26
2018-05-06T04:02:17.733Z,38.96
2018-05-06T04:02:49.739Z,39.16
2018-05-06T04:03:21.762Z,39.16
2018-05-06T04:03:54.617Z,39.26
2018-05-06T04:04:26.660Z,38.96
2018-05-06T04:04:58.677Z,39.45
2018-05-06T04:05:30.760Z,39.06
2018-05-06T04:06:02.808Z,39.26
2018-05-06T04:06:34.822Z,39.45
2018-05-06T04:07:06.824Z,39.06
2018-05-06T04:07:38.879Z,39.26
2018-05-06T04:08:10.956Z,39.06
2018-05-06T04:08:42.959Z,39.26
2018-05-06T04:09:14.996Z,39.35
2018-05-06T04:09:47.015Z,38.96
2018-05-06T04:10:19.137Z,39.45
2018-05-06T04:10:51.253Z,39.06
2018-05-06T04:11:23.287Z,39.16
2018-05-06T04:11:55.429Z,39.06
2018-05-06T04:12:27.571Z,38.96
2018-05-06T04:12:59.573Z,39.26
2018-05-06T04:13:31.630Z,39.26
2018-05-06T04:14:03.640Z,39.06
2018-05-06T04:14:35.660Z,38.96
2018-05-06T04:15:08.594Z,39.16
2018-05-06T04:15:40.615Z,39.06
2018-05-06T04:16:12.644Z,39.26
2018-05-06T04:16:44.690Z,39.45
2018-05-06T04:17:16.744Z,39.16
2018-05-06T04:17:48.778Z,39.45
2018-05-06T04:18:20.858Z,39.16
2018-05-06T04:18:52.853Z,39.06
2018-05-06T04:19:24.904Z,39.35
2018-05-06T04:19:56.947Z,38.96
2018-05-06T04:20:28.957Z,38.96
2018-05-06T04:21:00.999Z,39.06
2018-05-06T04:21:33.015Z,39.35
2018-05-06T04:22:05.037Z,39.06
2018-05-06T04:22:37.078Z,39.16
2018-05-06T04:23:09.067Z,38.96
2018-05-06T04:23:41.085Z,38.96
2018-05-06T04:24:13.101Z,39.45
2018-05-06T04:24:45.161Z,39.06
2018-05-06T04:25:17.195Z,39.16
2018-05-06T04:25:49.238Z,39.35
2018-05-06T04:26:21.249Z,39.45
2018-05-06T04:26:53.441Z,39.35
2018-05-06T04:27:25.546Z,39.16
2018-05-06T04:27:57.574Z,39.35
2018-05-06T04:28:29.577Z,38.96
2018-05-06T04:29:01.669Z,39.54
2018-05-06T04:29:33.663Z,39.06
2018-05-06T04:30:05.668Z,38.96
2018-05-06T04:30:37.744Z,39.06
2018-05-06T04:31:09.780Z,39.06
2018-05-06T04:31:41.821Z,39.06
2018-05-06T04:32:13.858Z,39.06
2018-05-06T04:32:45.955Z,39.16
2018-05-06T04:33:17.922Z,39.16
2018-05-06T04:33:49.944Z,39.06
2018-05-06T04:34:22.043Z,38.96
2018-05-06T04:34:54.244Z,39.06
2018-05-06T04:35:26.264Z,39.54
2018-05-06T04:35:58.289Z,38.96
2018-05-06T04:36:30.293Z,39.06
2018-05-06T04:37:02.332Z,39.45
2018-05-06T04:37:34.393Z,39.06
2018-05-06T04:38:06.426Z,39.45
2018-05-06T04:38:38.552Z,39.06
2018-05-06T04:39:10.608Z,38.96
2018-05-06T04:39:42.668Z,39.26
2018-05-06T04:40:14.734Z,39.16
2018-05-06T04:40:46.911Z,39.16
2018-05-06T04:41:19.065Z,39.54
2018-05-06T04:41:51.220Z,39.35
2018-05-06T04:42:23.250Z,39.06
2018-05-06T04:42:55.279Z,39.06
2018-05-06T04:43:27.291Z,39.26
2018-05-06T04:43:59.266Z,39.06
2018-05-06T04:44:31.296Z,39.16
2018-05-06T04:45:03.429Z,39.16
2018-05-06T04:45:35.405Z,39.06
2018-05-06T04:46:07.407Z,39.16
2018-05-06T04:46:39.425Z,39.35
2018-05-06T04:47:11.528Z,38.96
2018-05-06T04:47:43.627Z,39.26
2018-05-06T04:48:15.664Z,39.26
2018-05-06T04:48:47.683Z,39.06
2018-05-06T04:49:19.667Z,39.16
2018-05-06T04:49:51.679Z,39.26
2018-05-06T04:50:23.731Z,39.26
2018-05-06T04:50:55.781Z,39.16
2018-05-06T04:51:27.791Z,39.06
2018-05-06T04:51:59.859Z,39.16
2018-05-06T04:52:31.864Z,39.06
2018-05-06T04:53:03.911Z,39.06
2018-05-06T04:53:35.938Z,39.16
2018-05-06T04:54:07.975Z,39.45
2018-05-06T04:54:40.162Z,39.35
2018-05-06T04:55:12.171Z,39.16
2018-05-06T04:55:44.207Z,39.16
2018-05-06T04:56:16.259Z,39.16
2018-05-06T04:56:48.362Z,39.16
2018-05-06T04:57:20.389Z,39.16
2018-05-06T04:57:52.453Z,39.06
2018-05-06T04:58:24.495Z,39.16
2018-05-06T04:58:56.475Z,39.16
2018-05-06T04:59:28.473Z,39.16
2018-05-06T05:00:00.474Z,39.16
2018-05-06T05:00:32.488Z,39.16
2018-05-06T05:01:04.523Z,39.06
2018-05-06T05:01:36.556Z,39.16
2018-05-06T05:02:08.615Z,39.16
2018-05-06T05:02:40.666Z,38.87
2018-05-06T05:03:12.794Z,38.87
2018-05-06T05:03:44.817Z,39.16
2018-05-06T05:04:16.867Z,39.08
2018-05-06T05:04:48.899Z,38.78
2018-05-06T05:05:20.914Z,39.26
2018-05-06T05:05:52.934Z,39.16
2018-05-06T05:06:25.028Z,39.08
2018-05-06T05:06:57.055Z,39.16
2018-05-06T05:07:29.072Z,38.87
2018-05-06T05:08:01.120Z,38.89
2018-05-06T05:08:33.147Z,39.18
2018-05-06T05:09:05.239Z,39.18
2018-05-06T05:09:37.336Z,39.08
2018-05-06T05:10:09.332Z,38.99
2018-05-06T05:10:41.397Z,39.18
2018-05-06T05:11:13.415Z,39.28
2018-05-06T05:11:45.459Z,39.28
2018-05-06T05:12:17.493Z,39.28
2018-05-06T05:12:49.556Z,39.28
2018-05-06T05:13:21.554Z,38.99
2018-05-06T05:13:53.602Z,39.28
2018-05-06T05:14:25.598Z,39.08
2018-05-06T05:14:57.612Z,39.28
2018-05-06T05:15:29.642Z,38.99
2018-05-06T05:16:01.680Z,39.56
2018-05-06T05:16:33.663Z,38.99
2018-05-06T05:17:05.656Z,38.79
2018-05-06T05:17:37.671Z,38.99
2018-05-06T05:18:09.735Z,39.18
2018-05-06T05:18:41.767Z,38.99
2018-05-06T05:19:13.810Z,39.18
2018-05-06T05:19:45.842Z,38.89
2018-05-06T05:20:17.879Z,38.7
2018-05-06T05:20:49.935Z,39.28
2018-05-06T05:21:22.050Z,39.28
2018-05-06T05:21:54.089Z,38.79
2018-05-06T05:22:26.106Z,38.79
2018-05-06T05:22:58.101Z,38.79
2018-05-06T05:23:30.150Z,38.89
2018-05-06T05:24:02.173Z,38.79
2018-05-06T05:24:34.210Z,39.18
2018-05-06T05:25:06.226Z,39.08
2018-05-06T05:25:38.294Z,39.01
2018-05-06T05:26:10.385Z,38.89
2018-05-06T05:26:42.403Z,39.2
2018-05-06T05:27:14.448Z,38.89
2018-05-06T05:27:46.483Z,38.99
2018-05-06T05:28:18.521Z,39.08
2018-05-06T05:28:50.552Z,39.01
2018-05-06T05:29:22.624Z,38.91
2018-05-06T05:29:54.749Z,38.91
2018-05-06T05:30:26.787Z,39.01
2018-05-06T05:30:58.808Z,38.91
2018-05-06T05:31:30.816Z,38.91
2018-05-06T05:32:02.905Z,39.01
2018-05-06T05:32:34.939Z,38.72
2018-05-06T05:33:06.986Z,39.11
2018-05-06T05:33:39.021Z,38.91
2018-05-06T05:34:11.787Z,38.91
2018-05-06T05:34:43.877Z,38.91
2018-05-06T05:35:15.875Z,38.91
2018-05-06T05:35:47.910Z,39.01
2018-05-06T05:36:19.943Z,39.01
2018-05-06T05:36:51.978Z,39.01
2018-05-06T05:37:23.999Z,39.11
2018-05-06T05:37:56.022Z,38.91
2018-05-06T05:38:28.075Z,39.01
2018-05-06T05:39:00.098Z,38.91
2018-05-06T05:39:32.146Z,39.01
2018-05-06T05:40:04.192Z,38.91
2018-05-06T05:40:36.300Z,39.01
2018-05-06T05:41:08.336Z,39.01
2018-05-06T05:41:40.370Z,38.91
2018-05-06T05:42:12.415Z,39.01
2018-05-06T05:42:44.429Z,39.03
2018-05-06T05:43:16.440Z,38.93
2018-05-06T05:43:48.452Z,38.91
2018-05-06T05:44:20.487Z,38.91
2018-05-06T05:44:52.525Z,38.74
2018-05-06T05:45:24.666Z,38.84
2018-05-06T05:45:56.645Z,38.84
2018-05-06T05:46:28.690Z,38.93
2018-05-06T05:47:00.744Z,38.81
2018-05-06T05:47:32.856Z,38.84
2018-05-06T05:48:04.890Z,38.74
2018-05-06T05:48:36.928Z,38.64
2018-05-06T05:49:09.000Z,38.74
2018-05-06T05:49:41.115Z,38.74
2018-05-06T05:50:13.169Z,38.84
2018-05-06T05:50:45.175Z,38.64
2018-05-06T05:51:17.240Z,38.74
2018-05-06T05:51:49.345Z,38.74
2018-05-06T05:52:22.306Z,38.64
2018-05-06T05:52:54.334Z,38.54
2018-05-06T05:53:26.434Z,38.74
2018-05-06T05:53:58.474Z,38.84
2018-05-06T05:54:30.506Z,38.74
2018-05-06T05:55:02.584Z,38.74
2018-05-06T05:55:34.642Z,38.64
2018-05-06T05:56:06.838Z,38.64
2018-05-06T05:56:38.872Z,38.74
2018-05-06T05:57:10.927Z,38.74
2018-05-06T05:57:43.008Z,38.74
2018-05-06T05:58:15.073Z,39.03
2018-05-06T05:58:47.112Z,38.84
2018-05-06T05:59:19.134Z,38.64
2018-05-06T05:59:51.152Z,38.76
2018-05-06T06:00:23.829Z,38.76
2018-05-06T06:00:55.882Z,38.95
2018-05-06T06:01:28.005Z,38.66
2018-05-06T06:02:00.005Z,38.66
2018-05-06T06:02:32.002Z,38.85
2018-05-06T06:03:04.027Z,38.76
2018-05-06T06:03:36.092Z,38.66
2018-05-06T06:04:08.157Z,38.76
2018-05-06T06:04:40.134Z,38.85
2018-05-06T06:05:12.163Z,38.76
2018-05-06T06:05:44.211Z,38.66
2018-05-06T06:06:16.214Z,38.56
2018-05-06T06:06:48.282Z,38.56
2018-05-06T06:07:20.308Z,38.56
2018-05-06T06:07:52.350Z,38.56
2018-05-06T06:08:24.340Z,38.56
2018-05-06T06:08:56.375Z,38.47
2018-05-06T06:09:28.415Z,38.66
2018-05-06T06:10:00.478Z,38.49
2018-05-06T06:10:32.515Z,38.37
2018-05-06T06:11:04.616Z,38.59
2018-05-06T06:11:36.656Z,38.49
2018-05-06T06:12:08.700Z,38.49
2018-05-06T06:12:40.738Z,38.39
2018-05-06T06:13:12.766Z,38.59
2018-05-06T06:13:44.825Z,38.39
2018-05-06T06:14:16.842Z,38.39
2018-05-06T06:14:48.975Z,38.59
2018-05-06T06:15:21.027Z,38.1
2018-05-06T06:15:53.889Z,38.2
2018-05-06T06:16:25.887Z,38.1
2018-05-06T06:16:57.923Z,38.49
2018-05-06T06:17:29.954Z,38.1
2018-05-06T06:18:01.996Z,38.01
2018-05-06T06:18:34.000Z,38.49
2018-05-06T06:19:06.024Z,38.01
2018-05-06T06:19:38.124Z,38.29
2018-05-06T06:20:10.175Z,38.29
2018-05-06T06:20:42.201Z,38.29
2018-05-06T06:21:14.243Z,38.22
2018-05-06T06:21:46.257Z,38.12
2018-05-06T06:22:18.287Z,38.02
2018-05-06T06:22:50.434Z,38.02
2018-05-06T06:23:22.517Z,38.02
2018-05-06T06:23:54.546Z,38.02
2018-05-06T06:24:26.598Z,38.41
2018-05-06T06:24:58.673Z,38.41
2018-05-06T06:25:30.693Z,38.51
2018-05-06T06:26:02.728Z,37.83
2018-05-06T06:26:34.815Z,38.41
2018-05-06T06:27:06.952Z,38.31
2018-05-06T06:27:38.951Z,38.31
2018-05-06T06:28:11.020Z,38.31
2018-05-06T06:28:43.035Z,38.6
2018-05-06T06:29:15.086Z,38.51
2018-05-06T06:29:47.223Z,38.12
2018-05-06T06:30:19.245Z,38.22
2018-05-06T06:30:51.278Z,38.12
2018-05-06T06:31:23.303Z,38.22
2018-05-06T06:31:55.426Z,38.31
2018-05-06T06:32:27.404Z,38.12
2018-05-06T06:32:59.458Z,38.14
2018-05-06T06:33:31.533Z,38.14
2018-05-06T06:34:03.556Z,38.24
2018-05-06T06:34:35.585Z,38.04
2018-05-06T06:35:07.613Z,37.95
2018-05-06T06:35:39.752Z,37.95
2018-05-06T06:36:11.740Z,38.24
2018-05-06T06:36:43.765Z,38.14
2018-05-06T06:37:15.794Z,38.14
2018-05-06T06:37:47.840Z,38.14
2018-05-06T06:38:19.987Z,38.14
2018-05-06T06:38:52.010Z,37.95
2018-05-06T06:39:23.985Z,37.85
2018-05-06T06:39:56.016Z,37.95
2018-05-06T06:40:28.018Z,37.85
2018-05-06T06:40:59.972Z,38.04
2018-05-06T06:41:31.989Z,37.95
2018-05-06T06:42:04.063Z,37.96
2018-05-06T06:42:36.221Z,37.96
2018-05-06T06:43:08.217Z,37.95
2018-05-06T06:43:40.235Z,37.87
2018-05-06T06:44:12.264Z,37.96
2018-05-06T06:44:44.240Z,37.96
2018-05-06T06:45:16.281Z,37.96
2018-05-06T06:45:48.320Z,38.06
2018-05-06T06:46:20.344Z,37.96
2018-05-06T06:46:52.344Z,37.96
2018-05-06T06:47:24.434Z,37.96
2018-05-06T06:47:56.472Z,38.06
2018-05-06T06:48:28.557Z,38.06
2018-05-06T06:49:00.602Z,37.96
2018-05-06T06:49:32.663Z,37.96
2018-05-06T06:50:04.673Z,37.96
2018-05-06T06:50:36.704Z,38.06
2018-05-06T06:51:08.867Z,38.06
2018-05-06T06:51:40.816Z,37.96
2018-05-06T06:52:12.881Z,38.06
2018-05-06T06:52:45.000Z,38.06
2018-05-06T06:53:17.046Z,38.28